Terminal Aerodrome Forecast
Issued by NWS

Current Version | Previous Version | Text Only | Print | Product List | Glossary On
Versions: 1 2 3 4 5 6 7 8 9 10 11 12 13 14
000
FTUS46 KSTO 301933 AAA
TAFSCK
TAF AMD
KSCK 301933Z 3020/0118 34025G35KT P6SM SKC
     FM010000 36020G25KT P6SM SKC
     FM010300 34010G25KT P6SM SKC
     FM010500 VRB06KT P6SM FEW250=

USA.gov is the U.S. government's official web portal to all federal, state and local government web resources and services.